sensor_id;sensor_type;location;lat;lon;timestamp;P1;durP1;ratioP1;P2;durP2;ratioP2
31724;SDS011;18306;40.960;14.836;2023-01-05T00:01:23;27.02;;;14.02;;
31724;SDS011;18306;40.960;14.836;2023-01-05T00:03:50;25.30;;;14.57;;
31724;SDS011;18306;40.960;14.836;2023-01-05T00:06:18;24.48;;;14.52;;
31724;SDS011;18306;40.960;14.836;2023-01-05T00:08:45;33.22;;;15.40;;
31724;SDS011;18306;40.960;14.836;2023-01-05T00:11:14;30.27;;;17.17;;
31724;SDS011;18306;40.960;14.836;2023-01-05T00:14:05;33.03;;;16.38;;
31724;SDS011;18306;40.960;14.836;2023-01-05T00:16:56;28.48;;;15.40;;
31724;SDS011;18306;40.960;14.836;2023-01-05T00:19:42;28.50;;;15.88;;
31724;SDS011;18306;40.960;14.836;2023-01-05T00:22:27;30.23;;;15.65;;
31724;SDS011;18306;40.960;14.836;2023-01-05T00:25:03;29.88;;;14.35;;
31724;SDS011;18306;40.960;14.836;2023-01-05T00:27:35;21.55;;;12.05;;
31724;SDS011;18306;40.960;14.836;2023-01-05T00:30:03;26.80;;;15.75;;
31724;SDS011;18306;40.960;14.836;2023-01-05T00:32:31;28.95;;;13.73;;
31724;SDS011;18306;40.960;14.836;2023-01-05T00:34:58;29.35;;;14.63;;
31724;SDS011;18306;40.960;14.836;2023-01-05T00:37:28;26.98;;;15.60;;
31724;SDS011;18306;40.960;14.836;2023-01-05T00:39:57;37.00;;;14.43;;
31724;SDS011;18306;40.960;14.836;2023-01-05T00:42:25;29.38;;;14.50;;
31724;SDS011;18306;40.960;14.836;2023-01-05T00:44:53;29.38;;;15.93;;
31724;SDS011;18306;40.960;14.836;2023-01-05T00:47:20;28.02;;;15.20;;
31724;SDS011;18306;40.960;14.836;2023-01-05T00:49:48;34.28;;;16.45;;
31724;SDS011;18306;40.960;14.836;2023-01-05T00:52:17;25.15;;;17.00;;
31724;SDS011;18306;40.960;14.836;2023-01-05T00:54:44;32.92;;;17.42;;
31724;SDS011;18306;40.960;14.836;2023-01-05T00:57:12;40.95;;;18.50;;
31724;SDS011;18306;40.960;14.836;2023-01-05T00:59:40;25.33;;;16.17;;
31724;SDS011;18306;40.960;14.836;2023-01-05T01:02:08;24.30;;;15.35;;
31724;SDS011;18306;40.960;14.836;2023-01-05T01:04:35;38.65;;;16.13;;
31724;SDS011;18306;40.960;14.836;2023-01-05T01:07:04;31.13;;;16.80;;
31724;SDS011;18306;40.960;14.836;2023-01-05T01:09:32;34.03;;;16.85;;
31724;SDS011;18306;40.960;14.836;2023-01-05T01:12:00;27.95;;;17.13;;
31724;SDS011;18306;40.960;14.836;2023-01-05T01:14:27;24.73;;;14.77;;
31724;SDS011;18306;40.960;14.836;2023-01-05T01:16:54;33.58;;;17.27;;
31724;SDS011;18306;40.960;14.836;2023-01-05T01:19:22;32.80;;;16.05;;
31724;SDS011;18306;40.960;14.836;2023-01-05T01:21:50;21.65;;;14.32;;
31724;SDS011;18306;40.960;14.836;2023-01-05T01:24:20;31.95;;;16.02;;
31724;SDS011;18306;40.960;14.836;2023-01-05T01:26:49;28.92;;;17.02;;
31724;SDS011;18306;40.960;14.836;2023-01-05T01:29:17;30.63;;;14.98;;
31724;SDS011;18306;40.960;14.836;2023-01-05T01:31:48;35.95;;;16.17;;
31724;SDS011;18306;40.960;14.836;2023-01-05T01:34:17;27.02;;;14.93;;
31724;SDS011;18306;40.960;14.836;2023-01-05T01:36:44;22.77;;;14.82;;
31724;SDS011;18306;40.960;14.836;2023-01-05T01:39:12;26.67;;;15.13;;
31724;SDS011;18306;40.960;14.836;2023-01-05T01:41:44;33.38;;;16.08;;
31724;SDS011;18306;40.960;14.836;2023-01-05T01:49:50;31.02;;;14.98;;
31724;SDS011;18306;40.960;14.836;2023-01-05T01:52:18;27.75;;;15.35;;
31724;SDS011;18306;40.960;14.836;2023-01-05T01:54:48;29.08;;;14.02;;
31724;SDS011;18306;40.960;14.836;2023-01-05T01:57:17;22.90;;;13.73;;
31724;SDS011;18306;40.960;14.836;2023-01-05T01:59:46;31.80;;;14.77;;
31724;SDS011;18306;40.960;14.836;2023-01-05T02:02:13;27.65;;;14.48;;
31724;SDS011;18306;40.960;14.836;2023-01-05T02:04:40;34.13;;;14.85;;
31724;SDS011;18306;40.960;14.836;2023-01-05T02:07:10;24.13;;;12.70;;
31724;SDS011;18306;40.960;14.836;2023-01-05T02:09:40;21.55;;;13.68;;
31724;SDS011;18306;40.960;14.836;2023-01-05T02:12:14;20.80;;;12.85;;
31724;SDS011;18306;40.960;14.836;2023-01-05T02:14:51;32.25;;;14.18;;
31724;SDS011;18306;40.960;14.836;2023-01-05T02:31:47;23.08;;;12.85;;
31724;SDS011;18306;40.960;14.836;2023-01-05T02:37:15;25.83;;;12.57;;
31724;SDS011;18306;40.960;14.836;2023-01-05T02:39:49;25.90;;;13.73;;
31724;SDS011;18306;40.960;14.836;2023-01-05T02:42:24;23.85;;;13.00;;
31724;SDS011;18306;40.960;14.836;2023-01-05T02:44:53;26.45;;;15.18;;
31724;SDS011;18306;40.960;14.836;2023-01-05T02:52:38;26.83;;;15.13;;
31724;SDS011;18306;40.960;14.836;2023-01-05T02:55:12;25.73;;;14.40;;
31724;SDS011;18306;40.960;14.836;2023-01-05T02:57:46;25.90;;;14.13;;
31724;SDS011;18306;40.960;14.836;2023-01-05T03:00:26;26.92;;;13.32;;
31724;SDS011;18306;40.960;14.836;2023-01-05T03:03:01;31.27;;;15.10;;
31724;SDS011;18306;40.960;14.836;2023-01-05T03:05:42;19.38;;;12.85;;
31724;SDS011;18306;40.960;14.836;2023-01-05T03:08:20;28.02;;;13.38;;
31724;SDS011;18306;40.960;14.836;2023-01-05T03:11:01;31.60;;;14.40;;
31724;SDS011;18306;40.960;14.836;2023-01-05T03:13:57;28.30;;;14.93;;
31724;SDS011;18306;40.960;14.836;2023-01-05T03:16:35;30.35;;;16.08;;
31724;SDS011;18306;40.960;14.836;2023-01-05T03:19:06;29.08;;;14.80;;
31724;SDS011;18306;40.960;14.836;2023-01-05T03:21:58;29.20;;;15.83;;
31724;SDS011;18306;40.960;14.836;2023-01-05T03:24:52;26.77;;;15.30;;
31724;SDS011;18306;40.960;14.836;2023-01-05T03:27:40;22.75;;;12.68;;
31724;SDS011;18306;40.960;14.836;2023-01-05T03:30:46;32.58;;;15.48;;
31724;SDS011;18306;40.960;14.836;2023-01-05T03:33:49;22.75;;;14.70;;
31724;SDS011;18306;40.960;14.836;2023-01-05T03:36:58;29.95;;;15.68;;
31724;SDS011;18306;40.960;14.836;2023-01-05T03:39:29;27.70;;;15.32;;
31724;SDS011;18306;40.960;14.836;2023-01-05T03:42:03;25.67;;;14.32;;
31724;SDS011;18306;40.960;14.836;2023-01-05T03:44:33;29.90;;;15.70;;
31724;SDS011;18306;40.960;14.836;2023-01-05T03:47:02;30.55;;;14.63;;
31724;SDS011;18306;40.960;14.836;2023-01-05T03:49:29;25.20;;;15.25;;
31724;SDS011;18306;40.960;14.836;2023-01-05T03:51:58;24.48;;;12.68;;
31724;SDS011;18306;40.960;14.836;2023-01-05T03:54:27;22.70;;;12.85;;
31724;SDS011;18306;40.960;14.836;2023-01-05T03:56:56;22.70;;;12.18;;
31724;SDS011;18306;40.960;14.836;2023-01-05T03:59:23;25.40;;;13.63;;
31724;SDS011;18306;40.960;14.836;2023-01-05T04:01:52;22.50;;;13.00;;
31724;SDS011;18306;40.960;14.836;2023-01-05T04:04:20;24.05;;;12.73;;
31724;SDS011;18306;40.960;14.836;2023-01-05T04:06:47;24.08;;;13.90;;
31724;SDS011;18306;40.960;14.836;2023-01-05T04:09:15;23.50;;;13.57;;
31724;SDS011;18306;40.960;14.836;2023-01-05T04:11:44;28.13;;;12.65;;
31724;SDS011;18306;40.960;14.836;2023-01-05T04:14:12;21.10;;;12.23;;
31724;SDS011;18306;40.960;14.836;2023-01-05T04:16:39;24.10;;;12.18;;
31724;SDS011;18306;40.960;14.836;2023-01-05T04:19:16;27.08;;;13.07;;
31724;SDS011;18306;40.960;14.836;2023-01-05T04:21:43;29.50;;;13.38;;
31724;SDS011;18306;40.960;14.836;2023-01-05T04:24:12;35.42;;;14.35;;
31724;SDS011;18306;40.960;14.836;2023-01-05T04:26:42;24.02;;;12.82;;
31724;SDS011;18306;40.960;14.836;2023-01-05T04:29:10;27.85;;;13.35;;
31724;SDS011;18306;40.960;14.836;2023-01-05T04:31:39;22.23;;;13.57;;
31724;SDS011;18306;40.960;14.836;2023-01-05T04:34:07;29.98;;;12.73;;
31724;SDS011;18306;40.960;14.836;2023-01-05T04:36:35;24.23;;;13.80;;
31724;SDS011;18306;40.960;14.836;2023-01-05T04:39:04;16.98;;;11.75;;
31724;SDS011;18306;40.960;14.836;2023-01-05T04:41:35;20.65;;;12.07;;
31724;SDS011;18306;40.960;14.836;2023-01-05T04:44:03;21.95;;;12.23;;
31724;SDS011;18306;40.960;14.836;2023-01-05T04:46:30;23.88;;;11.95;;
31724;SDS011;18306;40.960;14.836;2023-01-05T04:48:58;24.52;;;11.30;;
31724;SDS011;18306;40.960;14.836;2023-01-05T04:51:25;21.35;;;12.02;;
31724;SDS011;18306;40.960;14.836;2023-01-05T04:53:52;21.20;;;12.90;;
31724;SDS011;18306;40.960;14.836;2023-01-05T04:56:22;21.02;;;12.38;;
31724;SDS011;18306;40.960;14.836;2023-01-05T04:58:49;19.27;;;11.85;;
31724;SDS011;18306;40.960;14.836;2023-01-05T05:01:18;20.35;;;11.95;;
31724;SDS011;18306;40.960;14.836;2023-01-05T05:03:52;24.77;;;12.52;;
31724;SDS011;18306;40.960;14.836;2023-01-05T05:06:33;21.48;;;10.88;;
31724;SDS011;18306;40.960;14.836;2023-01-05T05:09:11;22.10;;;11.50;;
31724;SDS011;18306;40.960;14.836;2023-01-05T05:11:43;96.70;;;34.45;;
31724;SDS011;18306;40.960;14.836;2023-01-05T05:14:28;29.65;;;15.70;;
31724;SDS011;18306;40.960;14.836;2023-01-05T05:17:03;24.00;;;12.65;;
31724;SDS011;18306;40.960;14.836;2023-01-05T05:19:41;26.92;;;13.48;;
31724;SDS011;18306;40.960;14.836;2023-01-05T05:22:22;22.42;;;12.50;;
31724;SDS011;18306;40.960;14.836;2023-01-05T05:24:49;20.58;;;12.30;;
31724;SDS011;18306;40.960;14.836;2023-01-05T05:27:17;19.88;;;11.43;;
31724;SDS011;18306;40.960;14.836;2023-01-05T05:29:44;25.40;;;13.82;;
31724;SDS011;18306;40.960;14.836;2023-01-05T05:32:11;24.20;;;14.73;;
31724;SDS011;18306;40.960;14.836;2023-01-05T05:34:38;31.05;;;14.10;;
31724;SDS011;18306;40.960;14.836;2023-01-05T05:37:06;25.40;;;13.90;;
31724;SDS011;18306;40.960;14.836;2023-01-05T05:39:33;34.03;;;17.67;;
31724;SDS011;18306;40.960;14.836;2023-01-05T05:42:00;33.65;;;16.58;;
31724;SDS011;18306;40.960;14.836;2023-01-05T05:44:28;35.35;;;15.80;;
31724;SDS011;18306;40.960;14.836;2023-01-05T05:46:55;31.98;;;14.75;;
31724;SDS011;18306;40.960;14.836;2023-01-05T05:49:22;22.60;;;13.10;;
31724;SDS011;18306;40.960;14.836;2023-01-05T05:51:49;25.77;;;14.35;;
31724;SDS011;18306;40.960;14.836;2023-01-05T05:54:17;25.10;;;13.55;;
31724;SDS011;18306;40.960;14.836;2023-01-05T05:56:44;22.77;;;13.18;;
31724;SDS011;18306;40.960;14.836;2023-01-05T05:59:11;22.02;;;12.52;;
31724;SDS011;18306;40.960;14.836;2023-01-05T06:01:38;18.60;;;11.73;;
31724;SDS011;18306;40.960;14.836;2023-01-05T06:04:06;23.85;;;12.27;;
31724;SDS011;18306;40.960;14.836;2023-01-05T06:06:33;34.92;;;14.23;;
31724;SDS011;18306;40.960;14.836;2023-01-05T06:09:00;24.02;;;13.63;;
31724;SDS011;18306;40.960;14.836;2023-01-05T06:11:27;31.92;;;13.40;;
31724;SDS011;18306;40.960;14.836;2023-01-05T06:13:54;22.85;;;13.25;;
31724;SDS011;18306;40.960;14.836;2023-01-05T06:16:21;26.75;;;12.80;;
31724;SDS011;18306;40.960;14.836;2023-01-05T06:18:48;19.85;;;12.55;;
31724;SDS011;18306;40.960;14.836;2023-01-05T06:21:15;31.90;;;14.60;;
31724;SDS011;18306;40.960;14.836;2023-01-05T06:23:43;28.52;;;13.32;;
31724;SDS011;18306;40.960;14.836;2023-01-05T06:26:10;28.23;;;13.85;;
31724;SDS011;18306;40.960;14.836;2023-01-05T06:28:37;23.95;;;12.63;;
31724;SDS011;18306;40.960;14.836;2023-01-05T06:31:04;26.35;;;13.45;;
31724;SDS011;18306;40.960;14.836;2023-01-05T06:33:31;21.83;;;13.82;;
31724;SDS011;18306;40.960;14.836;2023-01-05T06:35:58;29.17;;;12.77;;
31724;SDS011;18306;40.960;14.836;2023-01-05T06:38:25;28.17;;;13.52;;
31724;SDS011;18306;40.960;14.836;2023-01-05T06:40:53;24.58;;;11.63;;
31724;SDS011;18306;40.960;14.836;2023-01-05T06:43:20;27.38;;;12.85;;
31724;SDS011;18306;40.960;14.836;2023-01-05T06:45:47;34.97;;;16.25;;
31724;SDS011;18306;40.960;14.836;2023-01-05T06:48:14;29.75;;;13.75;;
31724;SDS011;18306;40.960;14.836;2023-01-05T06:50:42;27.98;;;13.60;;
31724;SDS011;18306;40.960;14.836;2023-01-05T06:53:09;26.15;;;13.63;;
31724;SDS011;18306;40.960;14.836;2023-01-05T06:55:36;27.92;;;13.27;;
31724;SDS011;18306;40.960;14.836;2023-01-05T06:58:03;23.35;;;13.70;;
31724;SDS011;18306;40.960;14.836;2023-01-05T07:00:31;29.55;;;14.10;;
31724;SDS011;18306;40.960;14.836;2023-01-05T07:02:58;28.30;;;13.93;;
31724;SDS011;18306;40.960;14.836;2023-01-05T07:05:25;34.03;;;16.02;;
31724;SDS011;18306;40.960;14.836;2023-01-05T07:07:52;29.50;;;13.90;;
31724;SDS011;18306;40.960;14.836;2023-01-05T07:10:20;37.72;;;15.75;;
31724;SDS011;18306;40.960;14.836;2023-01-05T07:12:47;25.13;;;13.45;;
31724;SDS011;18306;40.960;14.836;2023-01-05T07:15:14;30.95;;;14.63;;
31724;SDS011;18306;40.960;14.836;2023-01-05T07:17:41;25.40;;;13.27;;
31724;SDS011;18306;40.960;14.836;2023-01-05T07:20:09;23.48;;;12.73;;
31724;SDS011;18306;40.960;14.836;2023-01-05T07:22:36;19.30;;;12.20;;
31724;SDS011;18306;40.960;14.836;2023-01-05T07:25:04;25.25;;;13.55;;
31724;SDS011;18306;40.960;14.836;2023-01-05T07:27:31;30.10;;;13.02;;
31724;SDS011;18306;40.960;14.836;2023-01-05T07:30:04;27.83;;;12.30;;
31724;SDS011;18306;40.960;14.836;2023-01-05T07:32:40;21.95;;;12.38;;
31724;SDS011;18306;40.960;14.836;2023-01-05T07:35:07;26.88;;;11.85;;
31724;SDS011;18306;40.960;14.836;2023-01-05T07:37:35;21.98;;;12.75;;
31724;SDS011;18306;40.960;14.836;2023-01-05T07:40:02;25.50;;;10.98;;
31724;SDS011;18306;40.960;14.836;2023-01-05T07:42:29;22.85;;;12.02;;
31724;SDS011;18306;40.960;14.836;2023-01-05T07:44:58;24.33;;;12.57;;
31724;SDS011;18306;40.960;14.836;2023-01-05T07:47:27;23.15;;;13.60;;
31724;SDS011;18306;40.960;14.836;2023-01-05T07:49:54;26.52;;;12.50;;
31724;SDS011;18306;40.960;14.836;2023-01-05T07:52:21;26.55;;;12.98;;
31724;SDS011;18306;40.960;14.836;2023-01-05T07:54:48;22.25;;;13.48;;
31724;SDS011;18306;40.960;14.836;2023-01-05T07:57:15;26.80;;;13.38;;
31724;SDS011;18306;40.960;14.836;2023-01-05T07:59:43;49.22;;;16.88;;
31724;SDS011;18306;40.960;14.836;2023-01-05T08:02:10;43.15;;;18.05;;
31724;SDS011;18306;40.960;14.836;2023-01-05T08:04:37;38.78;;;17.50;;
31724;SDS011;18306;40.960;14.836;2023-01-05T08:07:05;43.20;;;17.38;;
31724;SDS011;18306;40.960;14.836;2023-01-05T08:09:37;38.83;;;16.17;;
31724;SDS011;18306;40.960;14.836;2023-01-05T08:12:22;30.13;;;15.65;;
31724;SDS011;18306;40.960;14.836;2023-01-05T08:14:49;29.45;;;14.38;;
31724;SDS011;18306;40.960;14.836;2023-01-05T08:17:17;27.92;;;14.63;;
31724;SDS011;18306;40.960;14.836;2023-01-05T08:19:44;33.70;;;14.52;;
31724;SDS011;18306;40.960;14.836;2023-01-05T08:22:14;30.75;;;15.98;;
31724;SDS011;18306;40.960;14.836;2023-01-05T08:24:43;27.27;;;15.05;;
31724;SDS011;18306;40.960;14.836;2023-01-05T08:29:53;21.77;;;14.63;;
31724;SDS011;18306;40.960;14.836;2023-01-05T08:32:23;29.70;;;15.32;;
31724;SDS011;18306;40.960;14.836;2023-01-05T08:34:53;25.48;;;14.98;;
31724;SDS011;18306;40.960;14.836;2023-01-05T08:37:20;32.08;;;16.20;;
31724;SDS011;18306;40.960;14.836;2023-01-05T08:39:48;28.90;;;15.10;;
31724;SDS011;18306;40.960;14.836;2023-01-05T08:42:16;31.77;;;16.00;;
31724;SDS011;18306;40.960;14.836;2023-01-05T08:44:43;35.00;;;19.23;;
31724;SDS011;18306;40.960;14.836;2023-01-05T08:47:13;31.42;;;17.40;;
31724;SDS011;18306;40.960;14.836;2023-01-05T08:49:45;31.50;;;18.25;;
31724;SDS011;18306;40.960;14.836;2023-01-05T08:52:13;40.10;;;19.30;;
31724;SDS011;18306;40.960;14.836;2023-01-05T08:54:40;36.85;;;19.85;;
31724;SDS011;18306;40.960;14.836;2023-01-05T08:57:09;37.92;;;20.48;;
31724;SDS011;18306;40.960;14.836;2023-01-05T08:59:36;48.05;;;19.98;;
31724;SDS011;18306;40.960;14.836;2023-01-05T09:02:03;38.63;;;20.77;;
31724;SDS011;18306;40.960;14.836;2023-01-05T09:04:30;47.60;;;22.05;;
31724;SDS011;18306;40.960;14.836;2023-01-05T09:06:58;47.00;;;22.48;;
31724;SDS011;18306;40.960;14.836;2023-01-05T09:09:25;35.05;;;18.73;;
31724;SDS011;18306;40.960;14.836;2023-01-05T09:11:52;33.53;;;17.45;;
31724;SDS011;18306;40.960;14.836;2023-01-05T09:14:28;33.55;;;18.67;;
31724;SDS011;18306;40.960;14.836;2023-01-05T09:16:55;42.92;;;19.73;;
31724;SDS011;18306;40.960;14.836;2023-01-05T09:19:22;27.42;;;17.58;;
31724;SDS011;18306;40.960;14.836;2023-01-05T09:21:49;38.83;;;18.17;;
31724;SDS011;18306;40.960;14.836;2023-01-05T09:24:17;35.88;;;15.93;;
31724;SDS011;18306;40.960;14.836;2023-01-05T09:26:45;28.85;;;15.02;;
31724;SDS011;18306;40.960;14.836;2023-01-05T09:29:13;40.45;;;15.50;;
31724;SDS011;18306;40.960;14.836;2023-01-05T09:31:40;32.88;;;14.30;;
31724;SDS011;18306;40.960;14.836;2023-01-05T09:34:08;29.52;;;15.80;;
31724;SDS011;18306;40.960;14.836;2023-01-05T09:36:36;28.42;;;17.48;;
31724;SDS011;18306;40.960;14.836;2023-01-05T09:39:06;59.85;;;26.00;;
31724;SDS011;18306;40.960;14.836;2023-01-05T09:41:42;54.63;;;20.73;;
31724;SDS011;18306;40.960;14.836;2023-01-05T09:44:27;31.75;;;17.45;;
31724;SDS011;18306;40.960;14.836;2023-01-05T09:50:16;41.13;;;21.80;;
31724;SDS011;18306;40.960;14.836;2023-01-05T09:52:52;41.90;;;18.67;;
31724;SDS011;18306;40.960;14.836;2023-01-05T09:55:26;39.05;;;18.25;;
31724;SDS011;18306;40.960;14.836;2023-01-05T09:57:57;33.13;;;19.05;;
31724;SDS011;18306;40.960;14.836;2023-01-05T10:00:36;41.58;;;18.35;;
31724;SDS011;18306;40.960;14.836;2023-01-05T10:03:10;34.35;;;17.50;;
31724;SDS011;18306;40.960;14.836;2023-01-05T10:08:23;54.50;;;26.67;;
31724;SDS011;18306;40.960;14.836;2023-01-05T10:10:55;33.28;;;15.93;;
31724;SDS011;18306;40.960;14.836;2023-01-05T10:14:00;31.30;;;14.80;;
31724;SDS011;18306;40.960;14.836;2023-01-05T10:16:34;24.17;;;11.05;;
31724;SDS011;18306;40.960;14.836;2023-01-05T10:19:01;24.67;;;11.23;;
31724;SDS011;18306;40.960;14.836;2023-01-05T10:26:56;12.38;;;8.15;;
31724;SDS011;18306;40.960;14.836;2023-01-05T10:29:45;17.40;;;8.80;;
31724;SDS011;18306;40.960;14.836;2023-01-05T10:32:24;24.33;;;8.70;;
31724;SDS011;18306;40.960;14.836;2023-01-05T10:43:02;12.98;;;7.38;;
31724;SDS011;18306;40.960;14.836;2023-01-05T10:45:41;13.98;;;7.22;;
31724;SDS011;18306;40.960;14.836;2023-01-05T10:48:12;13.50;;;7.43;;
31724;SDS011;18306;40.960;14.836;2023-01-05T10:50:43;14.30;;;7.13;;
31724;SDS011;18306;40.960;14.836;2023-01-05T10:55:53;18.30;;;8.23;;
31724;SDS011;18306;40.960;14.836;2023-01-05T10:58:34;20.73;;;8.20;;
31724;SDS011;18306;40.960;14.836;2023-01-05T11:01:23;11.68;;;7.20;;
31724;SDS011;18306;40.960;14.836;2023-01-05T11:04:01;16.88;;;8.10;;
31724;SDS011;18306;40.960;14.836;2023-01-05T11:06:38;16.17;;;8.38;;
31724;SDS011;18306;40.960;14.836;2023-01-05T11:09:16;14.85;;;8.63;;
31724;SDS011;18306;40.960;14.836;2023-01-05T11:11:55;12.35;;;7.43;;
31724;SDS011;18306;40.960;14.836;2023-01-05T11:14:43;12.88;;;8.30;;
31724;SDS011;18306;40.960;14.836;2023-01-05T11:17:19;11.75;;;6.28;;
31724;SDS011;18306;40.960;14.836;2023-01-05T11:19:48;14.93;;;6.22;;
31724;SDS011;18306;40.960;14.836;2023-01-05T11:22:37;11.68;;;6.90;;
31724;SDS011;18306;40.960;14.836;2023-01-05T11:25:16;12.30;;;6.40;;
31724;SDS011;18306;40.960;14.836;2023-01-05T11:30:38;11.13;;;6.43;;
31724;SDS011;18306;40.960;14.836;2023-01-05T11:33:24;10.80;;;7.38;;
31724;SDS011;18306;40.960;14.836;2023-01-05T11:35:54;12.20;;;7.57;;
31724;SDS011;18306;40.960;14.836;2023-01-05T11:38:24;11.30;;;6.70;;
31724;SDS011;18306;40.960;14.836;2023-01-05T11:40:53;14.13;;;6.80;;
31724;SDS011;18306;40.960;14.836;2023-01-05T11:43:23;11.57;;;5.95;;
31724;SDS011;18306;40.960;14.836;2023-01-05T11:45:54;6.90;;;4.93;;
31724;SDS011;18306;40.960;14.836;2023-01-05T11:48:27;12.15;;;5.70;;
31724;SDS011;18306;40.960;14.836;2023-01-05T11:50:58;11.13;;;4.38;;
31724;SDS011;18306;40.960;14.836;2023-01-05T11:56:19;10.98;;;5.35;;
31724;SDS011;18306;40.960;14.836;2023-01-05T11:58:51;9.70;;;4.85;;
31724;SDS011;18306;40.960;14.836;2023-01-05T12:01:30;11.10;;;5.95;;
31724;SDS011;18306;40.960;14.836;2023-01-05T12:04:33;8.77;;;5.13;;
31724;SDS011;18306;40.960;14.836;2023-01-05T12:07:34;12.90;;;6.32;;
31724;SDS011;18306;40.960;14.836;2023-01-05T12:15:33;11.18;;;5.78;;
31724;SDS011;18306;40.960;14.836;2023-01-05T12:18:17;12.75;;;5.57;;
31724;SDS011;18306;40.960;14.836;2023-01-05T12:26:25;12.95;;;6.88;;
31724;SDS011;18306;40.960;14.836;2023-01-05T12:42:35;12.70;;;7.18;;
31724;SDS011;18306;40.960;14.836;2023-01-05T12:47:53;9.27;;;5.95;;
31724;SDS011;18306;40.960;14.836;2023-01-05T12:53:07;12.95;;;6.40;;
31724;SDS011;18306;40.960;14.836;2023-01-05T12:55:57;10.35;;;5.75;;
31724;SDS011;18306;40.960;14.836;2023-01-05T12:58:33;11.45;;;6.85;;
31724;SDS011;18306;40.960;14.836;2023-01-05T13:01:06;13.90;;;6.95;;
31724;SDS011;18306;40.960;14.836;2023-01-05T13:03:50;12.18;;;6.32;;
31724;SDS011;18306;40.960;14.836;2023-01-05T13:06:25;17.00;;;6.13;;
31724;SDS011;18306;40.960;14.836;2023-01-05T13:08:57;8.65;;;5.45;;
31724;SDS011;18306;40.960;14.836;2023-01-05T13:16:40;7.88;;;5.22;;
31724;SDS011;18306;40.960;14.836;2023-01-05T13:22:04;9.60;;;4.95;;
31724;SDS011;18306;40.960;14.836;2023-01-05T13:24:49;20.40;;;5.75;;
31724;SDS011;18306;40.960;14.836;2023-01-05T13:27:30;12.10;;;6.00;;
31724;SDS011;18306;40.960;14.836;2023-01-05T13:29:57;17.60;;;6.25;;
31724;SDS011;18306;40.960;14.836;2023-01-05T13:33:15;9.93;;;5.88;;
31724;SDS011;18306;40.960;14.836;2023-01-05T13:38:27;14.95;;;6.65;;
31724;SDS011;18306;40.960;14.836;2023-01-05T13:53:13;11.80;;;6.85;;
31724;SDS011;18306;40.960;14.836;2023-01-05T13:55:54;12.88;;;7.20;;
31724;SDS011;18306;40.960;14.836;2023-01-05T14:00:58;12.33;;;6.57;;
31724;SDS011;18306;40.960;14.836;2023-01-05T14:03:28;10.35;;;6.80;;
31724;SDS011;18306;40.960;14.836;2023-01-05T14:06:01;14.93;;;6.97;;
31724;SDS011;18306;40.960;14.836;2023-01-05T14:08:35;16.43;;;7.43;;
31724;SDS011;18306;40.960;14.836;2023-01-05T14:11:09;12.18;;;7.97;;
31724;SDS011;18306;40.960;14.836;2023-01-05T14:13:49;13.05;;;7.03;;
31724;SDS011;18306;40.960;14.836;2023-01-05T14:22:03;11.90;;;7.13;;
31724;SDS011;18306;40.960;14.836;2023-01-05T14:24:48;18.05;;;8.90;;
31724;SDS011;18306;40.960;14.836;2023-01-05T14:27:20;19.15;;;8.27;;
31724;SDS011;18306;40.960;14.836;2023-01-05T14:32:21;19.85;;;8.80;;
31724;SDS011;18306;40.960;14.836;2023-01-05T14:35:20;15.45;;;8.40;;
31724;SDS011;18306;40.960;14.836;2023-01-05T14:37:57;20.48;;;9.88;;
31724;SDS011;18306;40.960;14.836;2023-01-05T14:46:13;22.33;;;10.13;;
31724;SDS011;18306;40.960;14.836;2023-01-05T14:48:46;21.88;;;10.73;;
31724;SDS011;18306;40.960;14.836;2023-01-05T14:51:25;19.38;;;9.48;;
31724;SDS011;18306;40.960;14.836;2023-01-05T14:53:59;17.40;;;11.10;;
31724;SDS011;18306;40.960;14.836;2023-01-05T14:56:31;20.67;;;11.25;;
31724;SDS011;18306;40.960;14.836;2023-01-05T14:59:20;16.77;;;10.80;;
31724;SDS011;18306;40.960;14.836;2023-01-05T15:02:00;22.70;;;11.70;;
31724;SDS011;18306;40.960;14.836;2023-01-05T15:04:47;22.08;;;12.20;;
31724;SDS011;18306;40.960;14.836;2023-01-05T15:07:27;20.58;;;11.00;;
31724;SDS011;18306;40.960;14.836;2023-01-05T15:13:14;20.63;;;10.13;;
31724;SDS011;18306;40.960;14.836;2023-01-05T15:19:25;21.27;;;9.77;;
31724;SDS011;18306;40.960;14.836;2023-01-05T15:21:42;18.88;;;11.02;;
31724;SDS011;18306;40.960;14.836;2023-01-05T15:30:21;23.58;;;10.50;;
31724;SDS011;18306;40.960;14.836;2023-01-05T15:33:12;16.60;;;10.50;;
31724;SDS011;18306;40.960;14.836;2023-01-05T15:35:53;22.20;;;10.20;;
31724;SDS011;18306;40.960;14.836;2023-01-05T15:38:24;25.63;;;11.52;;
31724;SDS011;18306;40.960;14.836;2023-01-05T15:40:58;19.90;;;10.82;;
31724;SDS011;18306;40.960;14.836;2023-01-05T15:43:27;18.65;;;11.93;;
31724;SDS011;18306;40.960;14.836;2023-01-05T15:45:55;21.38;;;12.00;;
31724;SDS011;18306;40.960;14.836;2023-01-05T15:48:46;27.92;;;13.77;;
31724;SDS011;18306;40.960;14.836;2023-01-05T15:53:58;24.88;;;13.45;;
31724;SDS011;18306;40.960;14.836;2023-01-05T15:56:30;24.02;;;11.95;;
31724;SDS011;18306;40.960;14.836;2023-01-05T15:58:59;25.20;;;13.02;;
31724;SDS011;18306;40.960;14.836;2023-01-05T16:01:28;25.48;;;13.45;;
31724;SDS011;18306;40.960;14.836;2023-01-05T16:04:05;24.13;;;14.05;;
31724;SDS011;18306;40.960;14.836;2023-01-05T16:06:35;31.00;;;13.70;;
31724;SDS011;18306;40.960;14.836;2023-01-05T16:09:19;24.63;;;13.38;;
31724;SDS011;18306;40.960;14.836;2023-01-05T16:11:51;23.67;;;13.05;;
31724;SDS011;18306;40.960;14.836;2023-01-05T16:14:31;24.30;;;11.10;;
31724;SDS011;18306;40.960;14.836;2023-01-05T16:17:12;23.38;;;11.70;;
31724;SDS011;18306;40.960;14.836;2023-01-05T16:19:54;18.50;;;10.38;;
31724;SDS011;18306;40.960;14.836;2023-01-05T16:27:38;14.68;;;9.25;;
31724;SDS011;18306;40.960;14.836;2023-01-05T16:30:15;19.75;;;9.30;;
31724;SDS011;18306;40.960;14.836;2023-01-05T16:33:05;12.93;;;7.47;;
31724;SDS011;18306;40.960;14.836;2023-01-05T16:36:04;48.00;;;35.00;;
31724;SDS011;18306;40.960;14.836;2023-01-05T16:38:34;25.52;;;15.85;;
31724;SDS011;18306;40.960;14.836;2023-01-05T16:41:04;20.42;;;12.23;;
31724;SDS011;18306;40.960;14.836;2023-01-05T16:43:41;22.02;;;10.77;;
31724;SDS011;18306;40.960;14.836;2023-01-05T16:46:30;16.95;;;9.40;;
31724;SDS011;18306;40.960;14.836;2023-01-05T16:51:50;15.02;;;7.40;;
31724;SDS011;18306;40.960;14.836;2023-01-05T16:54:25;13.30;;;7.82;;
31724;SDS011;18306;40.960;14.836;2023-01-05T16:57:03;18.60;;;8.52;;
31724;SDS011;18306;40.960;14.836;2023-01-05T16:59:54;13.98;;;7.63;;
31724;SDS011;18306;40.960;14.836;2023-01-05T17:05:15;17.35;;;8.00;;
31724;SDS011;18306;40.960;14.836;2023-01-05T17:07:48;17.15;;;7.40;;
31724;SDS011;18306;40.960;14.836;2023-01-05T17:10:25;10.77;;;6.75;;
31724;SDS011;18306;40.960;14.836;2023-01-05T17:15:31;14.43;;;7.50;;
31724;SDS011;18306;40.960;14.836;2023-01-05T17:18:47;13.35;;;7.07;;
31724;SDS011;18306;40.960;14.836;2023-01-05T17:21:13;12.13;;;7.30;;